Time;durP1;ratioP1;P1;durP2;ratioP2;P2;SDS_P1;SDS_P2;PMS_P1;PMS_P2;Temp;Humidity;BMP_temperature;BMP_pressure;BME280_temperature;BME280_humidity;BME280_pressure;Samples;Min_cycle;Max_cycle;Signal;HPM_P1;HPM_P2
2022/10/20 00:00:25;;;;;;;13.60;10.93;;;12.40;99.90;;;;;;5010461;28;20186;-54
2022/10/20 00:02:51;;;;;;;12.33;10.40;;;12.30;99.90;;;;;;5010084;28;20196;-54
2022/10/20 00:05:16;;;;;;;14.50;11.07;;;12.30;99.90;;;;;;5010410;28;20337;-54
2022/10/20 00:07:42;;;;;;;11.37;10.17;;;12.00;99.90;;;;;;5010166;28;20197;-54
2022/10/20 00:10:08;;;;;;;13.10;11.00;;;12.20;99.90;;;;;;5010631;28;20469;-55
2022/10/20 00:12:34;;;;;;;12.53;10.70;;;12.20;99.90;;;;;;5010508;28;20191;-55
2022/10/20 00:14:59;;;;;;;10.47;9.50;;;12.40;99.90;;;;;;4997136;28;20465;-55
2022/10/20 00:17:25;;;;;;;12.57;10.87;;;12.40;99.90;;;;;;5011740;28;20437;-55
2022/10/20 00:19:51;;;;;;;11.63;10.13;;;12.20;99.90;;;;;;5015755;28;20666;-54
2022/10/20 00:22:16;;;;;;;12.93;10.00;;;12.00;99.90;;;;;;5012228;28;20232;-55
2022/10/20 00:24:42;;;;;;;11.63;9.73;;;12.00;99.90;;;;;;5016986;28;20733;-54
2022/10/20 00:27:08;;;;;;;13.70;9.93;;;11.90;99.90;;;;;;5009517;28;20697;-55
2022/10/20 00:29:34;;;;;;;15.80;10.60;;;11.90;99.90;;;;;;5013740;28;20543;-55
2022/10/20 00:31:59;;;;;;;12.53;10.77;;;12.20;99.90;;;;;;5030523;28;20461;-56
2022/10/20 00:34:25;;;;;;;10.90;9.80;;;12.20;99.90;;;;;;5012393;28;21016;-55
2022/10/20 00:36:51;;;;;;;11.30;10.20;;;12.10;99.90;;;;;;5025094;28;20240;-55
2022/10/20 00:39:17;;;;;;;12.40;10.17;;;12.20;99.90;;;;;;5022451;28;20213;-55
2022/10/20 00:41:42;;;;;;;12.50;9.43;;;12.20;99.90;;;;;;5016174;28;20556;-54
2022/10/20 00:44:45;;;;;;;10.47;9.47;;;11.90;99.90;;;;;;5005100;28;20211;-55
2022/10/20 00:47:15;;;;;;;13.60;9.80;;;12.00;99.90;;;;;;5020286;28;20197;-55
2022/10/20 00:49:41;;;;;;;11.45;9.30;;;12.10;99.90;;;;;;5016467;28;20211;-54
2022/10/20 00:52:08;;;;;;;11.00;9.88;;;12.00;99.90;;;;;;5008381;28;20755;-55
2022/10/20 00:54:34;;;;;;;13.07;9.98;;;12.20;99.90;;;;;;5011682;28;20206;-55
2022/10/20 00:57:00;;;;;;;14.98;11.25;;;12.10;99.90;;;;;;5018829;28;20186;-55
2022/10/20 00:59:30;;;;;;;12.50;11.20;;;12.00;99.90;;;;;;5016773;28;20200;-54
2022/10/20 01:01:58;;;;;;;13.30;11.30;;;11.90;99.90;;;;;;5018199;28;20674;-54
2022/10/20 01:04:26;;;;;;;12.20;11.00;;;12.00;99.90;;;;;;5014384;28;20215;-54
2022/10/20 01:06:52;;;;;;;11.65;10.00;;;11.90;99.90;;;;;;5007578;28;20239;-55
2022/10/20 01:09:18;;;;;;;13.80;10.00;;;12.00;99.90;;;;;;5013711;28;20206;-53
2022/10/20 01:11:52;;;;;;;16.80;11.70;;;11.70;99.90;;;;;;5013569;28;20717;-55
2022/10/20 01:14:50;;;;;;;13.18;9.88;;;11.80;99.90;;;;;;5009264;28;20252;-54
2022/10/20 01:17:33;;;;;;;12.63;10.60;;;11.80;99.90;;;;;;4994230;28;20266;-53
2022/10/20 01:20:21;;;;;;;11.70;10.43;;;11.90;99.90;;;;;;5013397;28;20233;-54
2022/10/20 01:23:10;;;;;;;12.93;11.25;;;12.00;99.90;;;;;;5013132;28;20221;-54
2022/10/20 01:25:54;;;;;;;12.10;9.95;;;11.80;99.90;;;;;;5013601;28;20266;-55
2022/10/20 01:28:56;;;;;;;15.60;10.65;;;11.70;99.90;;;;;;5000193;28;20442;-55
2022/10/20 01:31:28;;;;;;;11.70;10.50;;;11.70;99.90;;;;;;5003784;28;20186;-55
2022/10/20 01:34:11;;;;;;;11.82;10.63;;;11.90;99.90;;;;;;5015681;28;20296;-55
2022/10/20 01:36:46;;;;;;;14.95;11.57;;;11.60;99.90;;;;;;5012823;28;20181;-55
2022/10/20 01:39:18;;;;;;;13.20;10.82;;;11.60;99.90;;;;;;5000658;28;20186;-53
2022/10/20 01:41:54;;;;;;;12.02;10.07;;;11.70;99.90;;;;;;5015088;28;20217;-54
2022/10/20 01:44:24;;;;;;;10.40;9.18;;;11.80;99.90;;;;;;5016408;28;20217;-54
2022/10/20 01:46:51;;;;;;;12.48;10.18;;;12.00;99.90;;;;;;5009991;28;20277;-54
2022/10/20 01:49:17;;;;;;;12.73;11.43;;;11.90;99.90;;;;;;5013105;28;20828;-54
2022/10/20 01:51:43;;;;;;;13.13;11.10;;;11.70;99.90;;;;;;5014230;28;20197;-55
2022/10/20 01:54:29;;;;;;;11.30;9.93;;;11.60;99.90;;;;;;5004868;28;20197;-54
2022/10/20 01:57:19;;;;;;;18.58;10.98;;;11.50;99.90;;;;;;5013953;28;20196;-53
2022/10/20 02:00:07;;;;;;;16.33;9.90;;;11.40;99.90;;;;;;5007762;28;20189;-53
2022/10/20 02:02:51;;;;;;;12.20;10.85;;;11.60;99.90;;;;;;5005985;28;20206;-54
2022/10/20 02:05:31;;;;;;;13.60;10.90;;;11.40;99.90;;;;;;5017133;28;20217;-53
2022/10/20 02:08:11;;;;;;;16.08;11.13;;;11.40;99.90;;;;;;5015063;28;20246;-54
2022/10/20 02:10:46;;;;;;;17.60;11.25;;;11.40;99.90;;;;;;5012093;28;20220;-54
2022/10/20 02:13:13;;;;;;;13.38;10.38;;;11.60;99.90;;;;;;5009503;28;20311;-54
2022/10/20 02:15:44;;;;;;;15.10;12.10;;;11.30;99.90;;;;;;5015093;28;20188;-54
2022/10/20 02:18:13;;;;;;;14.27;12.63;;;11.60;99.90;;;;;;5011547;28;20189;-54
2022/10/20 02:20:44;;;;;;;12.55;11.13;;;11.60;99.90;;;;;;5009929;28;20194;-54
2022/10/20 02:23:10;;;;;;;15.63;11.50;;;11.60;99.90;;;;;;5008425;28;20497;-55
2022/10/20 02:25:38;;;;;;;13.68;11.68;;;11.70;99.90;;;;;;5026094;28;20278;-55
2022/10/20 02:28:07;;;;;;;12.60;10.98;;;11.70;99.90;;;;;;5002791;28;20199;-54
2022/10/20 02:30:35;;;;;;;13.00;10.60;;;11.70;99.90;;;;;;5019464;28;20213;-54
2022/10/20 02:33:02;;;;;;;17.02;11.55;;;12.00;99.90;;;;;;5011635;28;20545;-55
2022/10/20 02:35:31;;;;;;;16.45;12.38;;;11.90;99.90;;;;;;5003217;28;20281;-55
2022/10/20 02:37:58;;;;;;;12.32;11.10;;;11.50;99.90;;;;;;5014509;28;20197;-55
2022/10/20 02:40:24;;;;;;;14.13;11.80;;;11.60;99.90;;;;;;5012965;28;20734;-55
2022/10/20 02:42:50;;;;;;;13.65;11.63;;;11.60;99.90;;;;;;5007328;28;20194;-54
2022/10/20 02:45:16;;;;;;;11.67;10.07;;;11.70;99.90;;;;;;5011676;28;20695;-55
2022/10/20 02:47:41;;;;;;;13.00;10.60;;;11.50;99.90;;;;;;5011407;28;20194;-55
2022/10/20 02:50:08;;;;;;;13.20;10.17;;;11.50;99.90;;;;;;5013252;28;20481;-55
2022/10/20 02:52:34;;;;;;;14.35;11.18;;;11.50;99.90;;;;;;5012411;28;20206;-55
2022/10/20 02:54:59;;;;;;;16.33;12.43;;;11.80;99.90;;;;;;5018816;28;20271;-54
2022/10/20 02:57:25;;;;;;;15.50;11.20;;;11.70;99.90;;;;;;5019676;28;20542;-54
2022/10/20 02:59:51;;;;;;;15.63;12.10;;;11.90;99.90;;;;;;5025809;28;20193;-54
2022/10/20 03:02:17;;;;;;;15.07;10.40;;;11.90;99.90;;;;;;5018465;28;20441;-54
2022/10/20 03:04:43;;;;;;;13.47;10.30;;;11.90;99.90;;;;;;5017840;28;20218;-55
2022/10/20 03:07:09;;;;;;;14.70;11.50;;;12.00;99.90;;;;;;5017990;28;20445;-55
2022/10/20 03:09:34;;;;;;;15.82;11.00;;;11.80;99.90;;;;;;5021927;28;20292;-54
2022/10/20 03:12:00;;;;;;;15.30;12.00;;;11.90;99.90;;;;;;5026053;28;20266;-54
2022/10/20 03:14:26;;;;;;;13.48;11.07;;;12.00;99.90;;;;;;4999836;28;20207;-55
2022/10/20 03:16:52;;;;;;;15.77;11.50;;;11.90;99.90;;;;;;5030004;28;20192;-54
2022/10/20 03:19:17;;;;;;;17.60;11.83;;;11.80;99.90;;;;;;5029715;28;20188;-55
2022/10/20 03:21:43;;;;;;;13.97;11.70;;;11.80;99.90;;;;;;5007899;28;20198;-55
2022/10/20 03:24:09;;;;;;;16.77;11.30;;;12.00;99.90;;;;;;5011021;28;20209;-56
2022/10/20 03:26:35;;;;;;;14.33;11.90;;;11.70;99.90;;;;;;5011147;28;20639;-54
2022/10/20 03:29:00;;;;;;;11.98;10.73;;;11.90;99.90;;;;;;5006752;28;20207;-54
2022/10/20 03:31:26;;;;;;;14.40;10.90;;;11.80;99.90;;;;;;5012345;28;20190;-54
2022/10/20 03:33:52;;;;;;;13.30;10.73;;;11.80;99.90;;;;;;5010660;28;20207;-54
2022/10/20 03:36:17;;;;;;;14.37;11.20;;;11.80;99.90;;;;;;5008691;28;20194;-54
2022/10/20 03:38:43;;;;;;;14.97;11.07;;;11.80;99.90;;;;;;5010011;28;20185;-54
2022/10/20 03:41:10;;;;;;;12.87;11.57;;;11.70;99.90;;;;;;5010548;28;20251;-55
2022/10/20 03:43:37;;;;;;;13.75;11.07;;;11.90;99.90;;;;;;5015675;28;20231;-56
2022/10/20 03:46:05;;;;;;;13.32;11.52;;;12.00;99.90;;;;;;4989045;28;20177;-56
2022/10/20 03:48:31;;;;;;;13.23;10.80;;;12.00;99.90;;;;;;5011159;28;20197;-56
2022/10/20 03:50:58;;;;;;;15.67;11.87;;;12.10;99.90;;;;;;4987817;28;20217;-55
2022/10/20 03:53:23;;;;;;;12.85;11.43;;;12.00;99.90;;;;;;5006644;28;20281;-55
2022/10/20 03:55:49;;;;;;;12.93;11.33;;;11.90;99.90;;;;;;5011449;28;20204;-55
2022/10/20 03:58:14;;;;;;;15.60;10.80;;;12.20;99.90;;;;;;5006200;28;20293;-55
2022/10/20 04:00:40;;;;;;;18.03;10.90;;;12.00;99.90;;;;;;5014035;28;20202;-55
2022/10/20 04:03:08;;;;;;;13.50;10.97;;;12.10;99.90;;;;;;5008549;28;20886;-54
2022/10/20 04:05:34;;;;;;;15.95;11.20;;;12.10;99.90;;;;;;5010278;28;20225;-55
2022/10/20 04:08:00;;;;;;;13.47;10.63;;;12.30;99.90;;;;;;5011319;28;20217;-55
2022/10/20 04:10:25;;;;;;;12.90;10.90;;;12.10;99.90;;;;;;5007731;28;20707;-55
2022/10/20 04:12:51;;;;;;;13.70;11.33;;;12.10;99.90;;;;;;5012991;28;20191;-56
2022/10/20 04:15:17;;;;;;;14.63;11.50;;;12.20;99.90;;;;;;5011544;28;20244;-55
2022/10/20 04:17:43;;;;;;;13.80;10.87;;;11.90;99.90;;;;;;5010219;28;20214;-56
2022/10/20 04:20:10;;;;;;;13.55;11.10;;;12.00;99.90;;;;;;5005982;28;20687;-55
2022/10/20 04:22:37;;;;;;;12.52;11.10;;;12.00;99.90;;;;;;5007781;28;20190;-55
2022/10/20 04:25:03;;;;;;;15.35;12.25;;;12.20;99.90;;;;;;5009635;28;20205;-55
2022/10/20 04:27:28;;;;;;;13.57;10.60;;;12.20;99.90;;;;;;5007723;28;20675;-55
2022/10/20 04:29:54;;;;;;;14.67;11.37;;;12.10;99.90;;;;;;5009833;28;20218;-56
2022/10/20 04:32:19;;;;;;;14.57;11.07;;;12.20;99.90;;;;;;5006951;28;20245;-56
2022/10/20 04:34:45;;;;;;;13.60;11.10;;;12.00;99.90;;;;;;5009109;28;20210;-55
2022/10/20 04:37:11;;;;;;;13.60;11.97;;;12.00;99.90;;;;;;5015001;28;20706;-55
2022/10/20 04:39:36;;;;;;;14.87;12.33;;;12.20;99.90;;;;;;5009012;28;20233;-55
2022/10/20 04:42:02;;;;;;;13.57;11.97;;;12.40;99.90;;;;;;5009046;28;20266;-56
2022/10/20 04:44:28;;;;;;;14.73;10.93;;;12.30;99.90;;;;;;5004647;28;20218;-54
2022/10/20 04:46:54;;;;;;;14.17;11.00;;;12.30;99.90;;;;;;5009819;28;20199;-54
2022/10/20 04:49:20;;;;;;;17.40;12.43;;;12.40;99.90;;;;;;5011227;28;20250;-54
2022/10/20 04:51:45;;;;;;;14.43;12.00;;;12.20;99.90;;;;;;5008406;28;20238;-55
2022/10/20 04:54:11;;;;;;;17.47;12.80;;;12.40;99.90;;;;;;5003579;28;20252;-55
2022/10/20 04:56:37;;;;;;;18.00;13.30;;;12.50;99.90;;;;;;5009811;28;20195;-55
2022/10/20 04:59:02;;;;;;;14.73;12.47;;;12.30;99.90;;;;;;5003388;28;20187;-56
2022/10/20 05:01:29;;;;;;;16.63;12.20;;;12.30;99.90;;;;;;5005798;28;20262;-53
2022/10/20 05:03:57;;;;;;;14.90;11.60;;;12.10;99.90;;;;;;5007386;28;20290;-61
2022/10/20 05:06:24;;;;;;;16.05;12.15;;;12.10;99.90;;;;;;5005341;28;20186;-61
2022/10/20 05:08:52;;;;;;;16.58;11.65;;;12.00;99.90;;;;;;5011605;28;20190;-60
2022/10/20 05:11:19;;;;;;;13.55;11.07;;;12.40;99.90;;;;;;5008008;28;20197;-59
2022/10/20 05:13:44;;;;;;;13.23;11.55;;;12.30;99.90;;;;;;5008024;28;20691;-56
2022/10/20 05:16:11;;;;;;;16.00;11.77;;;12.40;99.90;;;;;;5011704;28;20195;-59
2022/10/20 05:18:38;;;;;;;13.95;11.88;;;12.40;99.90;;;;;;5011891;28;20232;-64
2022/10/20 05:21:12;;;;;;;16.52;12.13;;;12.20;99.90;;;;;;4995866;28;20226;-64
2022/10/20 05:23:39;;;;;;;14.90;12.48;;;12.20;99.90;;;;;;5010970;28;20549;-59
2022/10/20 05:26:07;;;;;;;16.25;12.40;;;12.10;99.90;;;;;;5009237;28;20670;-59
2022/10/20 05:28:33;;;;;;;17.95;11.93;;;12.20;99.90;;;;;;5007223;28;20250;-59
2022/10/20 05:31:03;;;;;;;14.53;12.37;;;12.20;99.90;;;;;;5012248;28;20281;-60
2022/10/20 05:33:29;;;;;;;13.55;11.95;;;12.20;99.90;;;;;;5010435;28;20289;-59
2022/10/20 05:35:55;;;;;;;15.67;13.33;;;12.20;99.90;;;;;;5012561;28;20290;-60
2022/10/20 05:38:21;;;;;;;25.37;13.20;;;12.00;99.90;;;;;;5005515;28;20230;-60
2022/10/20 05:40:46;;;;;;;16.65;12.82;;;12.20;99.90;;;;;;5004553;28;20187;-57
2022/10/20 05:43:12;;;;;;;17.10;13.27;;;12.30;99.90;;;;;;4995215;28;20204;-59
2022/10/20 05:45:38;;;;;;;15.30;13.13;;;12.40;99.90;;;;;;5013693;28;20195;-57
2022/10/20 05:48:04;;;;;;;16.90;12.83;;;12.20;99.90;;;;;;5013616;28;20281;-56
2022/10/20 05:50:30;;;;;;;16.27;11.73;;;12.20;99.90;;;;;;5018523;28;20356;-56
2022/10/20 05:52:56;;;;;;;15.00;12.13;;;12.30;99.90;;;;;;5011336;28;20301;-56
2022/10/20 05:55:22;;;;;;;19.00;13.33;;;12.50;99.90;;;;;;5015789;28;20241;-56
2022/10/20 05:57:49;;;;;;;17.52;12.23;;;12.50;99.90;;;;;;5005590;28;20943;-56
2022/10/20 06:00:17;;;;;;;13.32;11.25;;;12.70;99.90;;;;;;5012807;28;20658;-56
2022/10/20 06:02:43;;;;;;;15.40;12.10;;;12.70;99.90;;;;;;5014351;28;20202;-57
2022/10/20 06:05:09;;;;;;;18.05;13.10;;;12.40;99.90;;;;;;5022341;28;20363;-56
2022/10/20 06:07:35;;;;;;;19.17;11.70;;;12.50;99.90;;;;;;5009586;28;20688;-57
2022/10/20 06:10:01;;;;;;;18.10;12.30;;;12.70;99.90;;;;;;5006470;28;20346;-56
2022/10/20 06:12:29;;;;;;;17.50;13.40;;;12.60;99.90;;;;;;5010171;28;20195;-56
2022/10/20 06:14:54;;;;;;;15.10;12.00;;;12.70;99.90;;;;;;5010271;28;20203;-56
2022/10/20 06:17:20;;;;;;;15.80;13.20;;;12.60;99.90;;;;;;4992745;28;20202;-55
2022/10/20 06:19:45;;;;;;;16.30;12.57;;;12.90;99.90;;;;;;5018256;28;20210;-55
2022/10/20 06:22:12;;;;;;;16.17;13.40;;;12.90;99.90;;;;;;5013067;28;20672;-55
2022/10/20 06:24:38;;;;;;;16.60;12.90;;;12.60;99.90;;;;;;5011259;28;20727;-55
2022/10/20 06:27:03;;;;;;;15.23;13.10;;;12.60;99.90;;;;;;5009532;28;20191;-56
2022/10/20 06:29:30;;;;;;;18.07;13.33;;;12.70;99.90;;;;;;5016862;28;20559;-55
2022/10/20 06:31:56;;;;;;;17.73;13.65;;;12.60;99.90;;;;;;5011953;28;20194;-54
2022/10/20 06:34:24;;;;;;;16.67;13.77;;;12.90;99.90;;;;;;4988598;28;20628;-55
2022/10/20 06:36:50;;;;;;;17.80;13.48;;;12.60;99.90;;;;;;4986571;28;20237;-55
2022/10/20 06:39:19;;;;;;;14.88;13.02;;;13.10;99.90;;;;;;5011456;28;20233;-55
2022/10/20 06:41:51;;;;;;;19.17;13.60;;;12.10;99.90;;;;;;5010210;28;20321;-56
2022/10/20 06:44:21;;;;;;;18.10;13.95;;;12.70;99.90;;;;;;5009373;28;20218;-56
2022/10/20 06:46:47;;;;;;;13.98;11.70;;;13.00;99.90;;;;;;5008707;28;20183;-56
2022/10/20 06:49:13;;;;;;;15.95;11.85;;;12.90;99.90;;;;;;5010555;28;20272;-56
2022/10/20 06:51:39;;;;;;;17.83;13.20;;;13.10;99.90;;;;;;5000067;28;20559;-56
2022/10/20 06:54:06;;;;;;;13.00;11.57;;;13.30;99.90;;;;;;5008613;28;20214;-58
2022/10/20 06:56:34;;;;;;;14.60;12.25;;;13.20;99.90;;;;;;5010513;28;20221;-55
2022/10/20 06:59:01;;;;;;;14.45;11.50;;;13.10;99.90;;;;;;5006637;28;20258;-56
2022/10/20 07:01:29;;;;;;;12.65;10.98;;;13.50;99.90;;;;;;5013504;28;20197;-56
2022/10/20 07:03:56;;;;;;;15.95;11.63;;;13.30;99.90;;;;;;5015850;28;20206;-54
2022/10/20 07:06:28;;;;;;;14.57;12.32;;;13.50;99.90;;;;;;5016601;28;20202;-54
2022/10/20 07:08:55;;;;;;;15.98;11.85;;;13.60;99.90;;;;;;5013836;28;20630;-54
2022/10/20 07:11:26;;;;;;;14.43;11.93;;;13.60;99.90;;;;;;5011270;28;20190;-53
2022/10/20 07:13:52;;;;;;;15.38;11.95;;;14.00;99.90;;;;;;4992696;28;20215;-54
2022/10/20 07:16:21;;;;;;;12.93;10.90;;;13.90;99.90;;;;;;5011152;28;20189;-53
2022/10/20 07:18:47;;;;;;;14.48;11.55;;;13.70;99.90;;;;;;5011275;28;20436;-53
2022/10/20 07:21:18;;;;;;;13.70;11.68;;;13.60;99.90;;;;;;5011545;28;20393;-53
2022/10/20 07:23:45;;;;;;;14.27;11.52;;;13.80;99.90;;;;;;5006290;28;20203;-53
2022/10/20 07:26:14;;;;;;;15.27;11.90;;;13.80;99.90;;;;;;5011617;28;20190;-55
2022/10/20 07:28:42;;;;;;;14.50;12.40;;;13.90;99.90;;;;;;5008099;28;20660;-54
2022/10/20 07:31:17;;;;;;;17.50;13.50;;;14.00;99.90;;;;;;5012876;28;20555;-54
2022/10/20 07:33:44;;;;;;;14.82;12.50;;;14.30;99.90;;;;;;5010774;28;20248;-54
2022/10/20 07:36:12;;;;;;;15.02;11.10;;;14.00;99.90;;;;;;5010734;28;20193;-54
2022/10/20 07:38:39;;;;;;;15.25;11.40;;;14.40;99.90;;;;;;5015003;28;20206;-55
2022/10/20 07:41:07;;;;;;;15.25;9.52;;;14.50;99.90;;;;;;5019440;28;20295;-55
2022/10/20 07:43:34;;;;;;;16.45;11.20;;;14.60;99.90;;;;;;5001670;28;20603;-55
2022/10/20 07:45:59;;;;;;;12.73;10.90;;;15.00;99.90;;;;;;5011169;28;20178;-55
2022/10/20 07:48:25;;;;;;;14.80;10.33;;;14.80;99.90;;;;;;5023645;28;20651;-55
2022/10/20 07:50:51;;;;;;;10.07;9.07;;;15.30;99.90;;;;;;4998480;28;20206;-55
2022/10/20 07:53:17;;;;;;;11.30;10.10;;;15.20;99.90;;;;;;5009237;28;20476;-55
2022/10/20 07:55:42;;;;;;;11.20;10.00;;;15.50;99.90;;;;;;5011970;28;20927;-55
2022/10/20 07:58:08;;;;;;;12.47;10.90;;;15.40;99.90;;;;;;5002858;28;20242;-55
2022/10/20 08:00:34;;;;;;;17.97;11.50;;;15.20;99.90;;;;;;5017023;28;20193;-54
2022/10/20 08:02:59;;;;;;;12.60;10.00;;;15.40;99.90;;;;;;5012135;28;20186;-55
2022/10/20 08:05:25;;;;;;;13.60;9.30;;;15.90;99.90;;;;;;5017332;28;20234;-55
2022/10/20 08:07:51;;;;;;;10.40;9.40;;;15.40;99.90;;;;;;5004328;28;20241;-55
2022/10/20 08:10:17;;;;;;;9.70;8.60;;;15.50;99.90;;;;;;5010759;28;20465;-55
2022/10/20 08:12:42;;;;;;;11.50;9.60;;;15.90;99.90;;;;;;5003556;28;20183;-55
2022/10/20 08:15:08;;;;;;;11.67;10.13;;;15.80;99.90;;;;;;5024005;28;20197;-55
2022/10/20 08:17:34;;;;;;;10.05;8.02;;;15.50;99.90;;;;;;5022235;28;20227;-55
2022/10/20 08:20:00;;;;;;;10.97;8.60;;;15.60;99.90;;;;;;5003474;28;20183;-55
2022/10/20 08:22:26;;;;;;;13.90;8.87;;;15.90;99.90;;;;;;5030877;28;20436;-55
2022/10/20 08:24:52;;;;;;;9.30;8.47;;;15.90;99.90;;;;;;5030696;28;20213;-55
2022/10/20 08:27:19;;;;;;;9.57;8.57;;;15.90;99.90;;;;;;5020573;28;20195;-55
2022/10/20 08:29:45;;;;;;;10.05;9.05;;;16.10;99.90;;;;;;5008259;28;20346;-54
2022/10/20 08:32:11;;;;;;;8.30;7.50;;;16.20;99.90;;;;;;5006719;28;20268;-56
2022/10/20 08:34:38;;;;;;;10.23;9.32;;;16.40;99.90;;;;;;5001151;28;20289;-53
2022/10/20 08:37:05;;;;;;;9.05;7.85;;;16.50;99.90;;;;;;5007559;28;20191;-56
2022/10/20 08:39:31;;;;;;;9.05;8.15;;;16.60;99.90;;;;;;5027693;28;20181;-54
2022/10/20 08:41:58;;;;;;;9.85;8.85;;;16.70;99.90;;;;;;4995819;28;20555;-53
2022/10/20 08:44:31;;;;;;;9.20;8.40;;;16.30;99.90;;;;;;5013187;28;20217;-55
2022/10/20 08:47:00;;;;;;;11.50;8.73;;;16.70;99.90;;;;;;5016300;28;20270;-53
2022/10/20 08:49:30;;;;;;;9.45;8.55;;;16.70;99.90;;;;;;5025081;28;20206;-54
2022/10/20 08:51:57;;;;;;;9.90;8.50;;;16.80;99.90;;;;;;5012460;28;20206;-54
2022/10/20 08:54:23;;;;;;;9.60;8.63;;;17.40;99.90;;;;;;5015021;28;20294;-54
2022/10/20 08:56:49;;;;;;;8.30;7.50;;;17.40;99.90;;;;;;5013634;28;20329;-53
2022/10/20 08:59:27;;;;;;;9.90;9.00;;;17.00;99.90;;;;;;5012904;28;20464;-54
2022/10/20 09:01:54;;;;;;;10.43;9.40;;;17.70;99.90;;;;;;5023180;28;20445;-54
2022/10/20 09:04:26;;;;;;;8.00;7.30;;;17.30;99.90;;;;;;5015315;28;20206;-54
2022/10/20 09:07:02;;;;;;;8.02;6.85;;;17.50;99.90;;;;;;5025648;28;20194;-53
2022/10/20 09:09:31;;;;;;;8.63;6.75;;;17.70;99.90;;;;;;5013037;28;20228;-57
2022/10/20 09:12:03;;;;;;;6.63;5.45;;;17.80;99.90;;;;;;5012409;28;20199;-58
2022/10/20 09:14:32;;;;;;;7.00;6.30;;;17.90;99.90;;;;;;5011979;28;20253;-57
2022/10/20 09:16:59;;;;;;;6.95;6.35;;;18.20;99.90;;;;;;5012949;28;20190;-58
2022/10/20 09:19:26;;;;;;;7.07;6.43;;;18.30;99.90;;;;;;5013918;28;20205;-58
2022/10/20 09:21:56;;;;;;;6.53;5.93;;;18.60;99.90;;;;;;5010490;28;20193;-58
2022/10/20 09:24:26;;;;;;;6.75;6.05;;;18.80;99.90;;;;;;5007131;28;20230;-58
2022/10/20 09:26:52;;;;;;;6.65;6.05;;;19.00;99.90;;;;;;4991903;28;20186;-55
2022/10/20 09:29:33;;;;;;;6.82;6.13;;;18.80;99.90;;;;;;5008026;28;20214;-54
2022/10/20 09:31:58;;;;;;;7.15;6.45;;;18.50;99.90;;;;;;4996662;28;20193;-55
2022/10/20 09:34:29;;;;;;;7.00;6.40;;;18.60;99.90;;;;;;5008416;28;20210;-54
2022/10/20 09:37:07;;;;;;;7.45;6.60;;;18.60;99.90;;;;;;5009364;28;20187;-56
2022/10/20 09:39:56;;;;;;;7.50;6.70;;;18.50;99.90;;;;;;5006348;28;20233;-55
2022/10/20 09:42:27;;;;;;;6.93;6.22;;;18.60;99.90;;;;;;5006208;28;20690;-55
2022/10/20 09:45:00;;;;;;;6.97;6.38;;;18.60;99.90;;;;;;5006113;28;20880;-53
2022/10/20 09:47:28;;;;;;;7.75;6.82;;;18.30;99.90;;;;;;5006103;28;20527;-55
2022/10/20 09:49:59;;;;;;;7.60;6.90;;;18.60;99.90;;;;;;5009809;28;20210;-53
2022/10/20 09:52:33;;;;;;;7.10;6.50;;;18.50;99.90;;;;;;5002971;28;20210;-54
2022/10/20 09:55:06;;;;;;;7.18;6.57;;;18.40;99.90;;;;;;5012215;28;20202;-54
2022/10/20 09:57:33;;;;;;;8.50;6.53;;;18.40;99.90;;;;;;5002961;28;20207;-54
2022/10/20 10:00:00;;;;;;;7.53;6.82;;;18.40;99.90;;;;;;5011191;28;20237;-54
2022/10/20 10:02:29;;;;;;;7.65;6.55;;;18.40;99.90;;;;;;5011567;28;20273;-56
2022/10/20 10:05:13;;;;;;;6.88;6.22;;;18.30;99.90;;;;;;5010614;28;20303;-54
2022/10/20 10:07:39;;;;;;;7.30;6.60;;;18.50;99.90;;;;;;5009942;28;20237;-58
2022/10/20 10:10:26;;;;;;;7.40;6.70;;;18.40;99.90;;;;;;5010346;28;20739;-58
2022/10/20 10:12:54;;;;;;;7.57;6.88;;;18.50;99.90;;;;;;5010032;28;20190;-56
2022/10/20 10:15:32;;;;;;;9.55;6.90;;;18.50;99.90;;;;;;5010025;28;20199;-56
2022/10/20 10:17:59;;;;;;;9.02;7.18;;;18.50;99.90;;;;;;5005825;28;20186;-55
2022/10/20 10:20:33;;;;;;;8.98;6.80;;;18.60;99.90;;;;;;5004686;28;20190;-54
2022/10/20 10:23:15;;;;;;;7.63;6.45;;;18.60;99.90;;;;;;5009719;28;20190;-55
2022/10/20 10:25:41;;;;;;;8.27;6.30;;;18.80;99.90;;;;;;5012087;28;20292;-55
2022/10/20 10:28:42;;;;;;;7.70;7.00;;;19.10;99.90;;;;;;5010060;28;20340;-55
2022/10/20 10:31:21;;;;;;;7.45;6.57;;;18.90;99.90;;;;;;4954646;28;20305;-54
2022/10/20 10:33:50;;;;;;;7.63;6.80;;;18.80;99.90;;;;;;4997056;28;20223;-56
2022/10/20 10:36:35;;;;;;;6.85;6.15;;;18.80;99.90;;;;;;5007960;28;20849;-55
2022/10/20 10:39:11;;;;;;;8.90;6.57;;;18.80;99.90;;;;;;5007659;28;20175;-51
2022/10/20 10:41:50;;;;;;;7.28;6.28;;;18.90;99.90;;;;;;4990330;28;20563;-50
2022/10/20 10:45:01;;;;;;;6.88;6.28;;;19.00;99.90;;;;;;5009342;28;20210;-51
2022/10/20 10:47:50;;;;;;;6.63;5.85;;;19.00;99.90;;;;;;5005079;28;20203;-55
2022/10/20 10:50:28;;;;;;;6.80;5.97;;;19.10;99.90;;;;;;5016996;28;20217;-61
2022/10/20 10:53:00;;;;;;;9.18;7.28;;;19.30;99.90;;;;;;4993350;28;20194;-62
2022/10/20 10:55:57;;;;;;;8.07;6.90;;;19.20;99.90;;;;;;5011310;28;20202;-63
2022/10/20 10:58:34;;;;;;;7.05;6.07;;;19.20;99.90;;;;;;5009929;28;20501;-62
2022/10/20 11:01:12;;;;;;;7.53;6.75;;;19.30;99.90;;;;;;5009627;28;20189;-56
2022/10/20 11:03:40;;;;;;;6.70;5.88;;;19.30;99.90;;;;;;5006651;28;20206;-60
2022/10/20 11:06:14;;;;;;;6.97;6.28;;;19.30;99.90;;;;;;5001535;28;20191;-54
2022/10/20 11:08:45;;;;;;;6.78;6.07;;;19.10;99.90;;;;;;5009464;28;20566;-55
2022/10/20 11:11:37;;;;;;;12.73;10.85;;;19.10;99.90;;;;;;5011732;28;20222;-54
2022/10/20 11:14:44;;;;;;;8.55;6.13;;;19.10;99.90;;;;;;5006247;28;20249;-60
2022/10/20 11:17:26;;;;;;;6.10;5.25;;;19.00;99.90;;;;;;4947522;28;20193;-59
2022/10/20 11:20:23;;;;;;;8.38;5.47;;;19.40;99.90;;;;;;5011964;28;20745;-57
2022/10/20 11:23:21;;;;;;;8.50;6.72;;;19.10;99.90;;;;;;4983418;28;20214;-58
2022/10/20 11:26:08;;;;;;;9.90;5.45;;;19.20;99.90;;;;;;5008943;28;20199;-58
2022/10/20 11:28:47;;;;;;;6.60;5.70;;;19.30;99.90;;;;;;5007567;28;20685;-58
2022/10/20 11:31:24;;;;;;;6.95;5.50;;;19.20;99.90;;;;;;5010586;28;20710;-57
2022/10/20 11:34:22;;;;;;;6.45;5.85;;;19.40;99.90;;;;;;5015402;28;20202;-57
2022/10/20 11:37:01;;;;;;;7.25;5.22;;;19.50;99.90;;;;;;4998604;28;20290;-58
2022/10/20 11:39:51;;;;;;;6.15;4.80;;;19.40;99.90;;;;;;5007855;28;20196;-58
2022/10/20 11:42:37;;;;;;;5.60;5.10;;;19.50;99.90;;;;;;5001730;28;20562;-57
2022/10/20 11:45:28;;;;;;;7.85;5.40;;;19.50;99.90;;;;;;5007208;28;20744;-58
2022/10/20 11:48:28;;;;;;;5.70;5.10;;;19.50;99.90;;;;;;5006545;28;21089;-58
2022/10/20 11:51:13;;;;;;;6.22;5.63;;;19.50;99.90;;;;;;5006243;28;20209;-58
2022/10/20 11:53:51;;;;;;;6.75;5.90;;;19.40;99.90;;;;;;5006267;28;20203;-56
2022/10/20 11:56:29;;;;;;;7.15;5.45;;;19.40;99.90;;;;;;5007911;28;20182;-56
2022/10/20 11:59:46;;;;;;;7.32;5.43;;;19.40;99.90;;;;;;5003806;28;20206;-56
2022/10/20 12:02:21;;;;;;;5.80;5.30;;;19.40;99.90;;;;;;4984531;28;20191;-55
2022/10/20 12:06:00;;;;;;;6.07;5.50;;;19.40;99.90;;;;;;5007951;28;20208;-56
2022/10/20 12:08:47;;;;;;;8.50;5.97;;;19.20;99.90;;;;;;4942858;28;20719;-55
2022/10/20 12:11:18;;;;;;;5.65;5.15;;;19.20;99.90;;;;;;4970706;28;20288;-54
2022/10/20 12:14:00;;;;;;;5.82;5.30;;;19.20;99.90;;;;;;5005138;28;20600;-57
2022/10/20 12:16:53;;;;;;;5.68;5.18;;;19.30;99.90;;;;;;5010938;28;20208;-57
2022/10/20 12:19:23;;;;;;;5.80;5.40;;;19.20;99.90;;;;;;5012348;28;20179;-56
2022/10/20 12:22:04;;;;;;;6.40;5.80;;;19.10;99.90;;;;;;5015093;28;20178;-57
2022/10/20 12:24:44;;;;;;;6.00;5.35;;;19.20;99.90;;;;;;5014230;28;20582;-56
2022/10/20 12:27:10;;;;;;;5.50;5.00;;;19.10;99.90;;;;;;5011377;28;20182;-55
2022/10/20 12:29:35;;;;;;;7.13;5.60;;;19.20;99.90;;;;;;5014301;28;20218;-55
2022/10/20 12:32:25;;;;;;;6.30;5.70;;;19.30;99.90;;;;;;5020120;28;20186;-57
2022/10/20 12:34:52;;;;;;;5.95;5.35;;;19.30;99.90;;;;;;5018573;28;20209;-56
2022/10/20 12:37:24;;;;;;;5.88;5.32;;;19.40;99.90;;;;;;5016539;28;20580;-57
2022/10/20 12:39:56;;;;;;;6.65;5.95;;;19.40;99.90;;;;;;5001540;28;20362;-58
2022/10/20 12:42:30;;;;;;;7.28;6.60;;;19.50;99.90;;;;;;5013202;28;21758;-58
2022/10/20 12:45:06;;;;;;;5.97;5.40;;;19.50;99.90;;;;;;5020862;28;20214;-57
2022/10/20 12:47:36;;;;;;;5.07;4.63;;;19.40;99.90;;;;;;5010687;28;20194;-56
2022/10/20 12:50:26;;;;;;;6.28;5.45;;;19.40;99.90;;;;;;5014243;28;20198;-58
2022/10/20 12:52:51;;;;;;;5.07;4.63;;;19.50;99.90;;;;;;5017583;28;20191;-59